sensor_id;sensor_type;location;lat;lon;timestamp;temperature;humidity
39621;DHT22;25309;48.686;9.170;2023-08-12T00:01:54;22.20;99.90
39621;DHT22;25309;48.686;9.170;2023-08-12T00:04:21;22.30;99.90
39621;DHT22;25309;48.686;9.170;2023-08-12T00:06:48;22.30;99.90
39621;DHT22;25309;48.686;9.170;2023-08-12T00:09:15;22.30;99.90
39621;DHT22;25309;48.686;9.170;2023-08-12T00:11:42;22.40;99.90
39621;DHT22;25309;48.686;9.170;2023-08-12T00:14:09;22.30;99.90
39621;DHT22;25309;48.686;9.170;2023-08-12T00:16:36;22.20;99.90
39621;DHT22;25309;48.686;9.170;2023-08-12T00:19:04;22.20;99.90
39621;DHT22;25309;48.686;9.170;2023-08-12T00:21:31;22.10;99.90
39621;DHT22;25309;48.686;9.170;2023-08-12T00:23:58;22.10;99.90
39621;DHT22;25309;48.686;9.170;2023-08-12T00:26:25;22.10;99.90
39621;DHT22;25309;48.686;9.170;2023-08-12T00:28:53;22.00;99.90
39621;DHT22;25309;48.686;9.170;2023-08-12T00:31:20;22.00;99.90
39621;DHT22;25309;48.686;9.170;2023-08-12T00:33:47;21.90;99.90
39621;DHT22;25309;48.686;9.170;2023-08-12T00:36:15;21.90;99.90
39621;DHT22;25309;48.686;9.170;2023-08-12T00:38:42;22.00;99.90
39621;DHT22;25309;48.686;9.170;2023-08-12T00:41:09;22.00;99.90
39621;DHT22;25309;48.686;9.170;2023-08-12T00:43:36;22.00;99.90
39621;DHT22;25309;48.686;9.170;2023-08-12T00:46:04;21.90;99.90
39621;DHT22;25309;48.686;9.170;2023-08-12T00:48:31;21.90;99.90
39621;DHT22;25309;48.686;9.170;2023-08-12T00:50:59;21.90;99.90
39621;DHT22;25309;48.686;9.170;2023-08-12T00:53:28;21.80;99.90
39621;DHT22;25309;48.686;9.170;2023-08-12T00:55:55;21.70;99.90
39621;DHT22;25309;48.686;9.170;2023-08-12T00:58:22;21.60;99.90
39621;DHT22;25309;48.686;9.170;2023-08-12T01:00:49;21.50;99.90
39621;DHT22;25309;48.686;9.170;2023-08-12T01:03:17;21.40;99.90
39621;DHT22;25309;48.686;9.170;2023-08-12T01:05:47;21.30;99.90
39621;DHT22;25309;48.686;9.170;2023-08-12T01:08:14;21.30;99.90
39621;DHT22;25309;48.686;9.170;2023-08-12T01:10:46;21.20;99.90
39621;DHT22;25309;48.686;9.170;2023-08-12T01:13:19;21.20;99.90
39621;DHT22;25309;48.686;9.170;2023-08-12T01:15:53;21.10;99.90
39621;DHT22;25309;48.686;9.170;2023-08-12T01:18:24;21.10;99.90
39621;DHT22;25309;48.686;9.170;2023-08-12T01:20:53;21.10;99.90
39621;DHT22;25309;48.686;9.170;2023-08-12T01:23:22;21.20;99.90
39621;DHT22;25309;48.686;9.170;2023-08-12T01:25:49;21.10;99.90
39621;DHT22;25309;48.686;9.170;2023-08-12T01:28:16;21.20;99.90
39621;DHT22;25309;48.686;9.170;2023-08-12T01:30:46;21.10;99.90
39621;DHT22;25309;48.686;9.170;2023-08-12T01:33:21;21.20;99.90
39621;DHT22;25309;48.686;9.170;2023-08-12T01:35:53;21.30;99.90
39621;DHT22;25309;48.686;9.170;2023-08-12T01:38:25;21.40;99.90
39621;DHT22;25309;48.686;9.170;2023-08-12T01:40:53;21.40;99.90
39621;DHT22;25309;48.686;9.170;2023-08-12T01:43:22;21.40;99.90
39621;DHT22;25309;48.686;9.170;2023-08-12T01:45:49;21.40;99.90
39621;DHT22;25309;48.686;9.170;2023-08-12T01:48:17;21.40;99.90
39621;DHT22;25309;48.686;9.170;2023-08-12T01:50:46;21.40;99.90
39621;DHT22;25309;48.686;9.170;2023-08-12T01:53:14;21.30;99.90
39621;DHT22;25309;48.686;9.170;2023-08-12T01:55:44;21.30;99.90
39621;DHT22;25309;48.686;9.170;2023-08-12T01:58:11;21.30;99.90
39621;DHT22;25309;48.686;9.170;2023-08-12T02:00:39;21.20;99.90
39621;DHT22;25309;48.686;9.170;2023-08-12T02:03:06;21.20;99.90
39621;DHT22;25309;48.686;9.170;2023-08-12T02:05:34;21.10;99.90
39621;DHT22;25309;48.686;9.170;2023-08-12T02:08:01;21.10;99.90
39621;DHT22;25309;48.686;9.170;2023-08-12T02:10:28;21.10;99.90
39621;DHT22;25309;48.686;9.170;2023-08-12T02:12:56;21.10;99.90
39621;DHT22;25309;48.686;9.170;2023-08-12T02:15:23;21.10;99.90
39621;DHT22;25309;48.686;9.170;2023-08-12T02:17:50;21.10;99.90
39621;DHT22;25309;48.686;9.170;2023-08-12T02:20:17;21.10;99.90
39621;DHT22;25309;48.686;9.170;2023-08-12T02:22:45;21.10;99.90
39621;DHT22;25309;48.686;9.170;2023-08-12T02:25:12;21.10;99.90
39621;DHT22;25309;48.686;9.170;2023-08-12T02:27:39;21.10;99.90
39621;DHT22;25309;48.686;9.170;2023-08-12T02:30:08;21.10;99.90
39621;DHT22;25309;48.686;9.170;2023-08-12T02:32:35;21.10;99.90
39621;DHT22;25309;48.686;9.170;2023-08-12T02:35:04;21.20;99.90
39621;DHT22;25309;48.686;9.170;2023-08-12T02:37:31;21.20;99.90
39621;DHT22;25309;48.686;9.170;2023-08-12T02:39:58;21.20;99.90
39621;DHT22;25309;48.686;9.170;2023-08-12T02:42:25;21.20;99.90
39621;DHT22;25309;48.686;9.170;2023-08-12T02:44:52;21.20;99.90
39621;DHT22;25309;48.686;9.170;2023-08-12T02:47:21;21.30;99.90
39621;DHT22;25309;48.686;9.170;2023-08-12T02:49:48;21.30;99.90
39621;DHT22;25309;48.686;9.170;2023-08-12T02:52:15;21.30;99.90
39621;DHT22;25309;48.686;9.170;2023-08-12T02:54:42;21.30;99.90
39621;DHT22;25309;48.686;9.170;2023-08-12T02:57:08;21.20;99.90
39621;DHT22;25309;48.686;9.170;2023-08-12T02:59:36;21.20;99.90
39621;DHT22;25309;48.686;9.170;2023-08-12T03:02:03;21.20;99.90
39621;DHT22;25309;48.686;9.170;2023-08-12T03:04:31;21.10;99.90
39621;DHT22;25309;48.686;9.170;2023-08-12T03:06:58;21.20;99.90
39621;DHT22;25309;48.686;9.170;2023-08-12T03:09:25;21.20;99.90
39621;DHT22;25309;48.686;9.170;2023-08-12T03:11:53;21.20;99.90
39621;DHT22;25309;48.686;9.170;2023-08-12T03:14:20;21.20;99.90
39621;DHT22;25309;48.686;9.170;2023-08-12T03:16:47;21.20;99.90
39621;DHT22;25309;48.686;9.170;2023-08-12T03:19:14;21.20;99.90
39621;DHT22;25309;48.686;9.170;2023-08-12T03:21:43;21.20;99.90
39621;DHT22;25309;48.686;9.170;2023-08-12T03:24:11;21.20;99.90
39621;DHT22;25309;48.686;9.170;2023-08-12T03:26:38;21.20;99.90
39621;DHT22;25309;48.686;9.170;2023-08-12T03:29:05;21.20;99.90
39621;DHT22;25309;48.686;9.170;2023-08-12T03:31:35;21.20;99.90
39621;DHT22;25309;48.686;9.170;2023-08-12T03:34:02;21.20;99.90
39621;DHT22;25309;48.686;9.170;2023-08-12T03:36:31;21.20;99.90
39621;DHT22;25309;48.686;9.170;2023-08-12T03:38:59;21.10;99.90
39621;DHT22;25309;48.686;9.170;2023-08-12T03:41:29;21.10;99.90
39621;DHT22;25309;48.686;9.170;2023-08-12T03:44:02;21.20;99.90
39621;DHT22;25309;48.686;9.170;2023-08-12T03:46:29;21.20;99.90
39621;DHT22;25309;48.686;9.170;2023-08-12T03:48:56;21.20;99.90
39621;DHT22;25309;48.686;9.170;2023-08-12T03:51:23;21.20;99.90
39621;DHT22;25309;48.686;9.170;2023-08-12T03:53:50;21.20;99.90
39621;DHT22;25309;48.686;9.170;2023-08-12T03:56:19;21.30;99.90
39621;DHT22;25309;48.686;9.170;2023-08-12T03:58:46;21.30;99.90
39621;DHT22;25309;48.686;9.170;2023-08-12T04:01:13;21.30;99.90
39621;DHT22;25309;48.686;9.170;2023-08-12T04:03:40;21.30;99.90
39621;DHT22;25309;48.686;9.170;2023-08-12T04:06:07;21.30;99.90
39621;DHT22;25309;48.686;9.170;2023-08-12T04:08:34;21.30;99.90
39621;DHT22;25309;48.686;9.170;2023-08-12T04:11:01;21.40;99.90
39621;DHT22;25309;48.686;9.170;2023-08-12T04:13:30;21.30;99.90
39621;DHT22;25309;48.686;9.170;2023-08-12T04:15:56;21.40;99.90
39621;DHT22;25309;48.686;9.170;2023-08-12T04:18:25;21.30;99.90
39621;DHT22;25309;48.686;9.170;2023-08-12T04:20:52;21.30;99.90
39621;DHT22;25309;48.686;9.170;2023-08-12T04:23:20;21.30;99.90
39621;DHT22;25309;48.686;9.170;2023-08-12T04:25:47;21.30;99.90
39621;DHT22;25309;48.686;9.170;2023-08-12T04:28:16;21.30;99.90
39621;DHT22;25309;48.686;9.170;2023-08-12T04:30:45;21.30;99.90
39621;DHT22;25309;48.686;9.170;2023-08-12T04:33:14;21.30;99.90
39621;DHT22;25309;48.686;9.170;2023-08-12T04:35:41;21.30;99.90
39621;DHT22;25309;48.686;9.170;2023-08-12T04:38:09;21.30;99.90
39621;DHT22;25309;48.686;9.170;2023-08-12T04:40:38;21.40;99.90
39621;DHT22;25309;48.686;9.170;2023-08-12T04:43:07;21.40;99.90
39621;DHT22;25309;48.686;9.170;2023-08-12T04:45:35;21.40;99.90
39621;DHT22;25309;48.686;9.170;2023-08-12T04:48:05;21.40;99.90
39621;DHT22;25309;48.686;9.170;2023-08-12T04:50:35;21.50;99.90
39621;DHT22;25309;48.686;9.170;2023-08-12T04:53:02;21.50;99.90
39621;DHT22;25309;48.686;9.170;2023-08-12T04:55:29;21.40;99.90
39621;DHT22;25309;48.686;9.170;2023-08-12T04:57:57;21.50;99.90
39621;DHT22;25309;48.686;9.170;2023-08-12T05:00:24;21.60;99.90
39621;DHT22;25309;48.686;9.170;2023-08-12T05:02:52;21.60;99.90
39621;DHT22;25309;48.686;9.170;2023-08-12T05:05:20;21.60;99.90
39621;DHT22;25309;48.686;9.170;2023-08-12T05:07:47;21.70;99.90
39621;DHT22;25309;48.686;9.170;2023-08-12T05:10:18;21.60;99.90
39621;DHT22;25309;48.686;9.170;2023-08-12T05:12:45;21.60;99.90
39621;DHT22;25309;48.686;9.170;2023-08-12T05:15:14;21.70;99.90
39621;DHT22;25309;48.686;9.170;2023-08-12T05:17:42;21.60;99.90
39621;DHT22;25309;48.686;9.170;2023-08-12T05:20:11;21.60;99.90
39621;DHT22;25309;48.686;9.170;2023-08-12T05:22:39;21.60;99.90
39621;DHT22;25309;48.686;9.170;2023-08-12T05:25:07;21.60;99.90
39621;DHT22;25309;48.686;9.170;2023-08-12T05:27:34;21.70;99.90
39621;DHT22;25309;48.686;9.170;2023-08-12T05:30:01;21.80;99.90
39621;DHT22;25309;48.686;9.170;2023-08-12T05:32:28;21.70;99.90
39621;DHT22;25309;48.686;9.170;2023-08-12T05:34:55;21.70;99.90
39621;DHT22;25309;48.686;9.170;2023-08-12T05:37:22;21.80;99.90
39621;DHT22;25309;48.686;9.170;2023-08-12T05:39:51;21.70;99.90
39621;DHT22;25309;48.686;9.170;2023-08-12T05:42:18;21.70;99.90
39621;DHT22;25309;48.686;9.170;2023-08-12T05:44:45;21.80;99.90
39621;DHT22;25309;48.686;9.170;2023-08-12T05:47:12;21.80;99.90
39621;DHT22;25309;48.686;9.170;2023-08-12T05:49:39;21.70;99.90
39621;DHT22;25309;48.686;9.170;2023-08-12T05:52:06;21.80;99.90
39621;DHT22;25309;48.686;9.170;2023-08-12T05:54:33;21.80;99.90
39621;DHT22;25309;48.686;9.170;2023-08-12T05:57:01;21.90;99.90
39621;DHT22;25309;48.686;9.170;2023-08-12T05:59:29;22.00;99.90
39621;DHT22;25309;48.686;9.170;2023-08-12T06:01:56;22.00;99.90
39621;DHT22;25309;48.686;9.170;2023-08-12T06:04:23;22.00;99.90
39621;DHT22;25309;48.686;9.170;2023-08-12T06:06:50;22.10;99.90
39621;DHT22;25309;48.686;9.170;2023-08-12T06:09:17;22.10;99.90
39621;DHT22;25309;48.686;9.170;2023-08-12T06:11:44;22.10;99.90
39621;DHT22;25309;48.686;9.170;2023-08-12T06:14:13;22.10;99.90
39621;DHT22;25309;48.686;9.170;2023-08-12T06:16:40;22.10;99.90
39621;DHT22;25309;48.686;9.170;2023-08-12T06:19:07;22.10;99.90
39621;DHT22;25309;48.686;9.170;2023-08-12T06:21:34;22.10;99.90
39621;DHT22;25309;48.686;9.170;2023-08-12T06:24:01;22.10;99.90
39621;DHT22;25309;48.686;9.170;2023-08-12T06:26:28;22.20;99.90
39621;DHT22;25309;48.686;9.170;2023-08-12T06:28:55;22.20;99.90
39621;DHT22;25309;48.686;9.170;2023-08-12T06:31:23;22.30;99.90
39621;DHT22;25309;48.686;9.170;2023-08-12T06:33:50;22.40;99.90
39621;DHT22;25309;48.686;9.170;2023-08-12T06:36:17;22.50;99.90
39621;DHT22;25309;48.686;9.170;2023-08-12T06:38:44;22.50;99.90
39621;DHT22;25309;48.686;9.170;2023-08-12T06:41:11;22.60;99.90
39621;DHT22;25309;48.686;9.170;2023-08-12T06:43:38;22.50;99.90
39621;DHT22;25309;48.686;9.170;2023-08-12T06:46:05;22.50;99.90
39621;DHT22;25309;48.686;9.170;2023-08-12T06:48:34;22.50;99.90
39621;DHT22;25309;48.686;9.170;2023-08-12T06:51:01;22.60;99.90
39621;DHT22;25309;48.686;9.170;2023-08-12T06:53:33;22.60;99.90
39621;DHT22;25309;48.686;9.170;2023-08-12T06:56:00;22.60;99.90
39621;DHT22;25309;48.686;9.170;2023-08-12T06:58:27;22.70;99.90
39621;DHT22;25309;48.686;9.170;2023-08-12T07:00:54;22.80;99.90
39621;DHT22;25309;48.686;9.170;2023-08-12T07:03:22;22.90;99.90
39621;DHT22;25309;48.686;9.170;2023-08-12T07:05:50;23.10;99.90
39621;DHT22;25309;48.686;9.170;2023-08-12T07:08:17;23.20;99.90
39621;DHT22;25309;48.686;9.170;2023-08-12T07:10:45;23.30;99.90
39621;DHT22;25309;48.686;9.170;2023-08-12T07:13:12;23.30;99.90
39621;DHT22;25309;48.686;9.170;2023-08-12T07:15:39;23.40;99.90
39621;DHT22;25309;48.686;9.170;2023-08-12T07:18:06;23.40;99.90
39621;DHT22;25309;48.686;9.170;2023-08-12T07:20:33;23.50;99.90
39621;DHT22;25309;48.686;9.170;2023-08-12T07:23:01;23.60;99.90
39621;DHT22;25309;48.686;9.170;2023-08-12T07:25:28;23.70;99.90
39621;DHT22;25309;48.686;9.170;2023-08-12T07:27:56;23.80;99.90
39621;DHT22;25309;48.686;9.170;2023-08-12T07:30:23;23.90;99.90
39621;DHT22;25309;48.686;9.170;2023-08-12T07:32:49;24.00;99.90
39621;DHT22;25309;48.686;9.170;2023-08-12T07:35:16;24.10;99.90
39621;DHT22;25309;48.686;9.170;2023-08-12T07:37:43;24.10;99.90
39621;DHT22;25309;48.686;9.170;2023-08-12T07:40:12;24.30;99.90
39621;DHT22;25309;48.686;9.170;2023-08-12T07:42:39;24.30;99.90
39621;DHT22;25309;48.686;9.170;2023-08-12T07:45:07;24.40;99.90
39621;DHT22;25309;48.686;9.170;2023-08-12T07:47:35;24.60;99.90
39621;DHT22;25309;48.686;9.170;2023-08-12T07:50:06;24.60;99.90
39621;DHT22;25309;48.686;9.170;2023-08-12T07:52:33;24.60;99.90
39621;DHT22;25309;48.686;9.170;2023-08-12T07:55:00;24.70;99.90
39621;DHT22;25309;48.686;9.170;2023-08-12T07:57:28;24.70;99.90
39621;DHT22;25309;48.686;9.170;2023-08-12T07:59:55;24.90;99.90
39621;DHT22;25309;48.686;9.170;2023-08-12T08:02:22;25.00;99.90
39621;DHT22;25309;48.686;9.170;2023-08-12T08:04:49;25.10;99.90
39621;DHT22;25309;48.686;9.170;2023-08-12T08:07:17;25.10;99.90
39621;DHT22;25309;48.686;9.170;2023-08-12T08:09:44;25.20;99.90
39621;DHT22;25309;48.686;9.170;2023-08-12T08:12:11;25.20;99.90
39621;DHT22;25309;48.686;9.170;2023-08-12T08:14:40;25.30;99.90
39621;DHT22;25309;48.686;9.170;2023-08-12T08:17:07;25.60;99.90
39621;DHT22;25309;48.686;9.170;2023-08-12T08:19:34;25.80;99.90
39621;DHT22;25309;48.686;9.170;2023-08-12T08:22:01;25.80;99.90
39621;DHT22;25309;48.686;9.170;2023-08-12T08:24:29;25.80;99.90
39621;DHT22;25309;48.686;9.170;2023-08-12T08:26:56;25.90;99.90
39621;DHT22;25309;48.686;9.170;2023-08-12T08:29:23;26.00;99.90
39621;DHT22;25309;48.686;9.170;2023-08-12T08:31:52;26.10;99.90
39621;DHT22;25309;48.686;9.170;2023-08-12T08:34:20;26.20;99.90
39621;DHT22;25309;48.686;9.170;2023-08-12T08:36:47;26.20;99.90
39621;DHT22;25309;48.686;9.170;2023-08-12T08:39:14;26.30;99.90
39621;DHT22;25309;48.686;9.170;2023-08-12T08:41:41;26.40;99.90
39621;DHT22;25309;48.686;9.170;2023-08-12T08:44:08;26.50;99.90
39621;DHT22;25309;48.686;9.170;2023-08-12T08:46:36;26.60;99.90
39621;DHT22;25309;48.686;9.170;2023-08-12T08:49:05;26.70;99.80
39621;DHT22;25309;48.686;9.170;2023-08-12T08:51:34;26.80;99.60
39621;DHT22;25309;48.686;9.170;2023-08-12T08:54:02;26.90;99.60
39621;DHT22;25309;48.686;9.170;2023-08-12T08:56:31;27.00;99.80
39621;DHT22;25309;48.686;9.170;2023-08-12T08:59:07;27.10;99.70
39621;DHT22;25309;48.686;9.170;2023-08-12T09:01:35;27.20;99.80
39621;DHT22;25309;48.686;9.170;2023-08-12T09:04:05;27.40;99.90
39621;DHT22;25309;48.686;9.170;2023-08-12T09:06:32;27.60;98.10
39621;DHT22;25309;48.686;9.170;2023-08-12T09:09:02;27.70;98.50
39621;DHT22;25309;48.686;9.170;2023-08-12T09:11:33;27.80;99.20
39621;DHT22;25309;48.686;9.170;2023-08-12T09:14:01;27.90;99.10
39621;DHT22;25309;48.686;9.170;2023-08-12T09:16:28;28.10;98.30
39621;DHT22;25309;48.686;9.170;2023-08-12T09:18:55;28.20;98.80
39621;DHT22;25309;48.686;9.170;2023-08-12T09:21:24;28.30;97.10
39621;DHT22;25309;48.686;9.170;2023-08-12T09:23:51;28.30;96.90
39621;DHT22;25309;48.686;9.170;2023-08-12T09:26:19;28.40;97.40
39621;DHT22;25309;48.686;9.170;2023-08-12T09:28:48;28.40;96.70
39621;DHT22;25309;48.686;9.170;2023-08-12T09:31:23;28.50;96.70
39621;DHT22;25309;48.686;9.170;2023-08-12T09:33:51;28.50;95.30
39621;DHT22;25309;48.686;9.170;2023-08-12T09:36:18;28.50;95.60
39621;DHT22;25309;48.686;9.170;2023-08-12T09:38:47;28.70;96.20
39621;DHT22;25309;48.686;9.170;2023-08-12T09:41:14;28.80;95.70
39621;DHT22;25309;48.686;9.170;2023-08-12T09:43:42;28.80;95.40
39621;DHT22;25309;48.686;9.170;2023-08-12T09:46:13;28.80;94.80
39621;DHT22;25309;48.686;9.170;2023-08-12T09:48:43;28.90;96.00
39621;DHT22;25309;48.686;9.170;2023-08-12T09:51:10;29.00;95.90
39621;DHT22;25309;48.686;9.170;2023-08-12T09:53:37;29.20;95.40
39621;DHT22;25309;48.686;9.170;2023-08-12T09:56:07;29.30;95.20
39621;DHT22;25309;48.686;9.170;2023-08-12T09:58:35;29.30;94.80
39621;DHT22;25309;48.686;9.170;2023-08-12T10:01:08;29.30;94.60
39621;DHT22;25309;48.686;9.170;2023-08-12T10:03:37;29.20;95.40
39621;DHT22;25309;48.686;9.170;2023-08-12T10:06:05;29.20;95.00
39621;DHT22;25309;48.686;9.170;2023-08-12T10:08:32;29.10;95.10
39621;DHT22;25309;48.686;9.170;2023-08-12T10:11:01;29.00;95.30
39621;DHT22;25309;48.686;9.170;2023-08-12T10:14:11;28.80;95.20
39621;DHT22;25309;48.686;9.170;2023-08-12T10:16:39;28.70;95.50
39621;DHT22;25309;48.686;9.170;2023-08-12T10:19:06;28.60;96.20
39621;DHT22;25309;48.686;9.170;2023-08-12T10:21:41;28.60;96.10
39621;DHT22;25309;48.686;9.170;2023-08-12T10:24:08;28.60;96.80
39621;DHT22;25309;48.686;9.170;2023-08-12T10:26:37;28.60;96.10
39621;DHT22;25309;48.686;9.170;2023-08-12T10:29:04;28.60;96.70
39621;DHT22;25309;48.686;9.170;2023-08-12T10:31:32;28.60;97.00
39621;DHT22;25309;48.686;9.170;2023-08-12T10:34:00;28.70;96.90
39621;DHT22;25309;48.686;9.170;2023-08-12T10:36:27;28.80;96.90
39621;DHT22;25309;48.686;9.170;2023-08-12T10:38:56;28.80;96.80
39621;DHT22;25309;48.686;9.170;2023-08-12T10:41:24;28.80;97.00
39621;DHT22;25309;48.686;9.170;2023-08-12T10:43:52;28.80;96.80
39621;DHT22;25309;48.686;9.170;2023-08-12T10:46:28;28.80;97.00
39621;DHT22;25309;48.686;9.170;2023-08-12T10:48:59;28.70;96.70
39621;DHT22;25309;48.686;9.170;2023-08-12T10:51:44;28.70;97.00
39621;DHT22;25309;48.686;9.170;2023-08-12T10:54:20;28.80;97.10
39621;DHT22;25309;48.686;9.170;2023-08-12T10:57:09;28.80;97.00
39621;DHT22;25309;48.686;9.170;2023-08-12T10:59:51;28.80;97.40
39621;DHT22;25309;48.686;9.170;2023-08-12T11:02:20;28.90;97.50
39621;DHT22;25309;48.686;9.170;2023-08-12T11:04:51;28.90;97.20
39621;DHT22;25309;48.686;9.170;2023-08-12T11:07:20;29.10;96.90
39621;DHT22;25309;48.686;9.170;2023-08-12T11:09:51;29.20;97.10
39621;DHT22;25309;48.686;9.170;2023-08-12T11:12:29;29.30;95.90
39621;DHT22;25309;48.686;9.170;2023-08-12T11:14:58;29.30;95.60
39621;DHT22;25309;48.686;9.170;2023-08-12T11:17:33;29.40;95.70
39621;DHT22;25309;48.686;9.170;2023-08-12T11:20:03;29.40;95.60
39621;DHT22;25309;48.686;9.170;2023-08-12T11:22:32;29.40;95.40
39621;DHT22;25309;48.686;9.170;2023-08-12T11:25:00;29.50;95.30
39621;DHT22;25309;48.686;9.170;2023-08-12T11:27:28;29.60;95.70
39621;DHT22;25309;48.686;9.170;2023-08-12T11:29:55;29.80;95.60
39621;DHT22;25309;48.686;9.170;2023-08-12T11:32:22;29.90;95.70
39621;DHT22;25309;48.686;9.170;2023-08-12T11:34:49;30.00;95.70
39621;DHT22;25309;48.686;9.170;2023-08-12T11:37:17;29.90;95.60
39621;DHT22;25309;48.686;9.170;2023-08-12T11:39:44;30.10;95.30
39621;DHT22;25309;48.686;9.170;2023-08-12T11:42:11;30.20;95.20
39621;DHT22;25309;48.686;9.170;2023-08-12T11:44:40;30.30;94.80
39621;DHT22;25309;48.686;9.170;2023-08-12T11:47:07;30.30;94.90
39621;DHT22;25309;48.686;9.170;2023-08-12T11:49:34;30.30;94.30
39621;DHT22;25309;48.686;9.170;2023-08-12T11:52:01;30.30;93.40
39621;DHT22;25309;48.686;9.170;2023-08-12T11:54:31;30.30;93.20
39621;DHT22;25309;48.686;9.170;2023-08-12T11:56:59;30.20;92.40
39621;DHT22;25309;48.686;9.170;2023-08-12T11:59:26;30.30;92.40
39621;DHT22;25309;48.686;9.170;2023-08-12T12:01:54;30.30;92.50
39621;DHT22;25309;48.686;9.170;2023-08-12T12:04:22;30.50;92.90
39621;DHT22;25309;48.686;9.170;2023-08-12T12:06:49;30.60;92.20
39621;DHT22;25309;48.686;9.170;2023-08-12T12:09:16;30.70;91.90
39621;DHT22;25309;48.686;9.170;2023-08-12T12:11:46;30.60;91.60
39621;DHT22;25309;48.686;9.170;2023-08-12T12:14:13;30.40;91.60
39621;DHT22;25309;48.686;9.170;2023-08-12T12:16:41;30.20;91.80
39621;DHT22;25309;48.686;9.170;2023-08-12T12:19:12;30.10;92.10
39621;DHT22;25309;48.686;9.170;2023-08-12T12:21:39;29.90;92.20
39621;DHT22;25309;48.686;9.170;2023-08-12T12:24:07;29.70;92.70
39621;DHT22;25309;48.686;9.170;2023-08-12T12:26:35;29.60;93.10
39621;DHT22;25309;48.686;9.170;2023-08-12T12:29:04;29.40;93.40
39621;DHT22;25309;48.686;9.170;2023-08-12T12:31:33;29.30;94.40
39621;DHT22;25309;48.686;9.170;2023-08-12T12:34:00;29.10;97.00
39621;DHT22;25309;48.686;9.170;2023-08-12T12:36:27;28.90;99.50
39621;DHT22;25309;48.686;9.170;2023-08-12T12:38:54;28.40;99.90
39621;DHT22;25309;48.686;9.170;2023-08-12T12:41:22;27.90;99.90
39621;DHT22;25309;48.686;9.170;2023-08-12T12:43:49;27.50;99.90
39621;DHT22;25309;48.686;9.170;2023-08-12T12:46:17;27.10;99.90
39621;DHT22;25309;48.686;9.170;2023-08-12T12:48:44;26.60;99.90
39621;DHT22;25309;48.686;9.170;2023-08-12T12:51:12;26.20;99.90
39621;DHT22;25309;48.686;9.170;2023-08-12T12:53:39;26.00;99.90
39621;DHT22;25309;48.686;9.170;2023-08-12T12:56:06;25.80;99.90
39621;DHT22;25309;48.686;9.170;2023-08-12T12:58:34;25.70;99.90
39621;DHT22;25309;48.686;9.170;2023-08-12T13:01:02;25.60;99.90
39621;DHT22;25309;48.686;9.170;2023-08-12T13:03:31;25.60;99.90
39621;DHT22;25309;48.686;9.170;2023-08-12T13:05:58;25.30;99.90
39621;DHT22;25309;48.686;9.170;2023-08-12T13:08:25;25.30;99.90
39621;DHT22;25309;48.686;9.170;2023-08-12T13:10:52;25.30;99.90
39621;DHT22;25309;48.686;9.170;2023-08-12T13:13:19;25.20;99.90
39621;DHT22;25309;48.686;9.170;2023-08-12T13:15:47;25.20;99.90
39621;DHT22;25309;48.686;9.170;2023-08-12T13:18:14;25.20;99.90
39621;DHT22;25309;48.686;9.170;2023-08-12T13:20:42;25.20;99.90
39621;DHT22;25309;48.686;9.170;2023-08-12T13:23:09;24.90;99.90
39621;DHT22;25309;48.686;9.170;2023-08-12T13:25:37;24.70;99.90
39621;DHT22;25309;48.686;9.170;2023-08-12T13:28:05;24.50;99.90
39621;DHT22;25309;48.686;9.170;2023-08-12T13:30:32;24.40;99.90
39621;DHT22;25309;48.686;9.170;2023-08-12T13:32:59;24.40;99.90
39621;DHT22;25309;48.686;9.170;2023-08-12T13:35:28;24.40;99.90
39621;DHT22;25309;48.686;9.170;2023-08-12T13:37:56;24.40;99.90
39621;DHT22;25309;48.686;9.170;2023-08-12T13:40:23;24.40;99.90
39621;DHT22;25309;48.686;9.170;2023-08-12T13:42:50;24.40;99.90
39621;DHT22;25309;48.686;9.170;2023-08-12T13:45:17;24.40;99.90
39621;DHT22;25309;48.686;9.170;2023-08-12T13:47:45;24.40;99.90
39621;DHT22;25309;48.686;9.170;2023-08-12T13:50:11;24.50;99.90
39621;DHT22;25309;48.686;9.170;2023-08-12T13:52:40;24.60;99.90
39621;DHT22;25309;48.686;9.170;2023-08-12T13:55:09;24.60;99.90
39621;DHT22;25309;48.686;9.170;2023-08-12T13:57:36;24.70;99.90
39621;DHT22;25309;48.686;9.170;2023-08-12T14:00:04;24.80;99.90
39621;DHT22;25309;48.686;9.170;2023-08-12T14:02:41;24.90;99.90
39621;DHT22;25309;48.686;9.170;2023-08-12T14:05:09;25.10;99.90
39621;DHT22;25309;48.686;9.170;2023-08-12T14:07:37;25.20;99.90
39621;DHT22;25309;48.686;9.170;2023-08-12T14:10:05;25.30;99.90
39621;DHT22;25309;48.686;9.170;2023-08-12T14:12:34;25.40;99.90
39621;DHT22;25309;48.686;9.170;2023-08-12T14:15:01;25.50;99.90
39621;DHT22;25309;48.686;9.170;2023-08-12T14:17:28;25.70;99.90
39621;DHT22;25309;48.686;9.170;2023-08-12T14:19:55;26.00;99.90
39621;DHT22;25309;48.686;9.170;2023-08-12T14:22:21;26.30;99.90
39621;DHT22;25309;48.686;9.170;2023-08-12T14:24:48;26.60;99.90
39621;DHT22;25309;48.686;9.170;2023-08-12T14:27:15;26.90;99.90
39621;DHT22;25309;48.686;9.170;2023-08-12T14:29:46;27.20;99.90
39621;DHT22;25309;48.686;9.170;2023-08-12T14:32:13;27.50;99.90
39621;DHT22;25309;48.686;9.170;2023-08-12T14:34:42;27.60;99.90
39621;DHT22;25309;48.686;9.170;2023-08-12T14:37:12;27.70;99.90
39621;DHT22;25309;48.686;9.170;2023-08-12T14:39:39;28.00;99.90
39621;DHT22;25309;48.686;9.170;2023-08-12T14:42:07;28.20;99.90
39621;DHT22;25309;48.686;9.170;2023-08-12T14:44:35;28.30;99.90
39621;DHT22;25309;48.686;9.170;2023-08-12T14:47:05;28.40;99.90
39621;DHT22;25309;48.686;9.170;2023-08-12T14:49:32;28.40;99.90
39621;DHT22;25309;48.686;9.170;2023-08-12T14:51:59;28.40;99.90
39621;DHT22;25309;48.686;9.170;2023-08-12T14:54:26;28.40;99.90
39621;DHT22;25309;48.686;9.170;2023-08-12T14:56:53;28.30;99.90
39621;DHT22;25309;48.686;9.170;2023-08-12T14:59:20;28.10;99.90
39621;DHT22;25309;48.686;9.170;2023-08-12T15:01:47;27.90;99.90
39621;DHT22;25309;48.686;9.170;2023-08-12T15:04:15;28.00;99.90
39621;DHT22;25309;48.686;9.170;2023-08-12T15:06:43;28.00;99.90
39621;DHT22;25309;48.686;9.170;2023-08-12T15:09:10;28.00;99.90
39621;DHT22;25309;48.686;9.170;2023-08-12T15:11:37;28.00;99.90
39621;DHT22;25309;48.686;9.170;2023-08-12T15:14:04;28.20;99.90
39621;DHT22;25309;48.686;9.170;2023-08-12T15:16:31;28.40;99.90
39621;DHT22;25309;48.686;9.170;2023-08-12T15:18:58;28.40;99.90
39621;DHT22;25309;48.686;9.170;2023-08-12T15:21:27;28.40;99.90
39621;DHT22;25309;48.686;9.170;2023-08-12T15:23:54;28.50;99.90
39621;DHT22;25309;48.686;9.170;2023-08-12T15:26:21;28.50;99.90
39621;DHT22;25309;48.686;9.170;2023-08-12T15:28:49;28.30;99.90
39621;DHT22;25309;48.686;9.170;2023-08-12T15:31:16;28.30;99.90
39621;DHT22;25309;48.686;9.170;2023-08-12T15:33:43;28.30;99.90
39621;DHT22;25309;48.686;9.170;2023-08-12T15:36:10;28.20;99.90